sensor_id;sensor_type;location;lat;lon;timestamp;temperature;humidity
7814;DHT22;3952;48.364;16.022;2023-09-07T00:00:13;16.50;99.90
7814;DHT22;3952;48.364;16.022;2023-09-07T00:02:40;16.50;99.90
7814;DHT22;3952;48.364;16.022;2023-09-07T00:05:09;16.50;99.90
7814;DHT22;3952;48.364;16.022;2023-09-07T00:07:37;16.50;99.90
7814;DHT22;3952;48.364;16.022;2023-09-07T00:10:05;16.50;99.90
7814;DHT22;3952;48.364;16.022;2023-09-07T00:12:33;16.50;99.90
7814;DHT22;3952;48.364;16.022;2023-09-07T00:15:00;16.40;99.90
7814;DHT22;3952;48.364;16.022;2023-09-07T00:17:29;16.50;99.90
7814;DHT22;3952;48.364;16.022;2023-09-07T00:19:56;16.50;99.90
7814;DHT22;3952;48.364;16.022;2023-09-07T00:22:25;16.40;99.90
7814;DHT22;3952;48.364;16.022;2023-09-07T00:24:52;16.30;99.90
7814;DHT22;3952;48.364;16.022;2023-09-07T00:27:19;16.30;99.90
7814;DHT22;3952;48.364;16.022;2023-09-07T00:29:46;16.20;99.90
7814;DHT22;3952;48.364;16.022;2023-09-07T00:32:13;16.30;99.90
7814;DHT22;3952;48.364;16.022;2023-09-07T00:34:41;16.30;99.90
7814;DHT22;3952;48.364;16.022;2023-09-07T00:37:08;16.20;99.90
7814;DHT22;3952;48.364;16.022;2023-09-07T00:39:36;16.20;99.90
7814;DHT22;3952;48.364;16.022;2023-09-07T00:42:04;16.10;99.90
7814;DHT22;3952;48.364;16.022;2023-09-07T00:44:31;16.10;99.90
7814;DHT22;3952;48.364;16.022;2023-09-07T00:46:58;16.10;99.90
7814;DHT22;3952;48.364;16.022;2023-09-07T00:49:26;16.10;99.90
7814;DHT22;3952;48.364;16.022;2023-09-07T00:51:53;16.20;99.90
7814;DHT22;3952;48.364;16.022;2023-09-07T00:54:20;16.20;99.90
7814;DHT22;3952;48.364;16.022;2023-09-07T00:56:49;16.20;99.90
7814;DHT22;3952;48.364;16.022;2023-09-07T00:59:16;16.20;99.90
7814;DHT22;3952;48.364;16.022;2023-09-07T01:01:43;16.20;99.90
7814;DHT22;3952;48.364;16.022;2023-09-07T01:04:11;16.20;99.90
7814;DHT22;3952;48.364;16.022;2023-09-07T01:06:39;16.20;99.90
7814;DHT22;3952;48.364;16.022;2023-09-07T01:09:11;16.10;99.90
7814;DHT22;3952;48.364;16.022;2023-09-07T01:11:41;16.10;99.90
7814;DHT22;3952;48.364;16.022;2023-09-07T01:14:09;16.10;99.90
7814;DHT22;3952;48.364;16.022;2023-09-07T01:16:37;16.10;99.90
7814;DHT22;3952;48.364;16.022;2023-09-07T01:19:06;16.20;99.90
7814;DHT22;3952;48.364;16.022;2023-09-07T01:21:37;16.20;99.90
7814;DHT22;3952;48.364;16.022;2023-09-07T01:24:08;16.20;99.90
7814;DHT22;3952;48.364;16.022;2023-09-07T01:26:35;16.20;99.90
7814;DHT22;3952;48.364;16.022;2023-09-07T01:29:04;16.10;99.90
7814;DHT22;3952;48.364;16.022;2023-09-07T01:31:35;16.10;99.90
7814;DHT22;3952;48.364;16.022;2023-09-07T01:34:03;16.00;99.90
7814;DHT22;3952;48.364;16.022;2023-09-07T01:36:32;16.00;99.90
7814;DHT22;3952;48.364;16.022;2023-09-07T01:39:00;16.00;99.90
7814;DHT22;3952;48.364;16.022;2023-09-07T01:41:28;16.00;99.90
7814;DHT22;3952;48.364;16.022;2023-09-07T01:43:55;16.00;99.90
7814;DHT22;3952;48.364;16.022;2023-09-07T01:46:22;16.00;99.90
7814;DHT22;3952;48.364;16.022;2023-09-07T01:48:49;16.00;99.90
7814;DHT22;3952;48.364;16.022;2023-09-07T01:51:16;16.00;99.90
7814;DHT22;3952;48.364;16.022;2023-09-07T01:53:46;15.90;99.90
7814;DHT22;3952;48.364;16.022;2023-09-07T01:56:15;15.90;99.90
7814;DHT22;3952;48.364;16.022;2023-09-07T01:58:42;15.90;99.90
7814;DHT22;3952;48.364;16.022;2023-09-07T02:01:21;15.80;99.90
7814;DHT22;3952;48.364;16.022;2023-09-07T02:03:48;15.90;99.90
7814;DHT22;3952;48.364;16.022;2023-09-07T02:06:16;15.80;99.90
7814;DHT22;3952;48.364;16.022;2023-09-07T02:08:43;15.80;99.90
7814;DHT22;3952;48.364;16.022;2023-09-07T02:11:10;15.70;99.90
7814;DHT22;3952;48.364;16.022;2023-09-07T02:13:41;15.70;99.90
7814;DHT22;3952;48.364;16.022;2023-09-07T02:16:08;15.70;99.90
7814;DHT22;3952;48.364;16.022;2023-09-07T02:18:36;15.70;99.90
7814;DHT22;3952;48.364;16.022;2023-09-07T02:21:06;15.60;99.90
7814;DHT22;3952;48.364;16.022;2023-09-07T02:23:33;15.50;99.90
7814;DHT22;3952;48.364;16.022;2023-09-07T02:26:01;15.50;99.90
7814;DHT22;3952;48.364;16.022;2023-09-07T02:28:28;15.50;99.90
7814;DHT22;3952;48.364;16.022;2023-09-07T02:31:02;15.50;99.90
7814;DHT22;3952;48.364;16.022;2023-09-07T02:33:30;15.50;99.90
7814;DHT22;3952;48.364;16.022;2023-09-07T02:35:57;15.40;99.90
7814;DHT22;3952;48.364;16.022;2023-09-07T02:38:24;15.40;99.90
7814;DHT22;3952;48.364;16.022;2023-09-07T02:40:52;15.40;99.90
7814;DHT22;3952;48.364;16.022;2023-09-07T02:43:20;15.30;99.90
7814;DHT22;3952;48.364;16.022;2023-09-07T02:45:49;15.30;99.90
7814;DHT22;3952;48.364;16.022;2023-09-07T02:48:18;15.30;99.90
7814;DHT22;3952;48.364;16.022;2023-09-07T02:50:45;15.30;99.90
7814;DHT22;3952;48.364;16.022;2023-09-07T02:53:14;15.20;99.90
7814;DHT22;3952;48.364;16.022;2023-09-07T02:55:41;15.20;99.90
7814;DHT22;3952;48.364;16.022;2023-09-07T02:58:09;15.20;99.90
7814;DHT22;3952;48.364;16.022;2023-09-07T03:00:41;15.20;99.90
7814;DHT22;3952;48.364;16.022;2023-09-07T03:03:10;15.20;99.90
7814;DHT22;3952;48.364;16.022;2023-09-07T03:05:39;15.20;99.90
7814;DHT22;3952;48.364;16.022;2023-09-07T03:08:06;15.20;99.90
7814;DHT22;3952;48.364;16.022;2023-09-07T03:10:35;15.20;99.90
7814;DHT22;3952;48.364;16.022;2023-09-07T03:13:03;15.20;99.90
7814;DHT22;3952;48.364;16.022;2023-09-07T03:15:31;15.10;99.90
7814;DHT22;3952;48.364;16.022;2023-09-07T03:17:58;15.00;99.90
7814;DHT22;3952;48.364;16.022;2023-09-07T03:20:25;14.90;99.90
7814;DHT22;3952;48.364;16.022;2023-09-07T03:22:54;14.90;99.90
7814;DHT22;3952;48.364;16.022;2023-09-07T03:25:23;14.90;99.90
7814;DHT22;3952;48.364;16.022;2023-09-07T03:27:50;14.90;99.90
7814;DHT22;3952;48.364;16.022;2023-09-07T03:30:17;14.90;99.90
7814;DHT22;3952;48.364;16.022;2023-09-07T03:32:45;14.90;99.90
7814;DHT22;3952;48.364;16.022;2023-09-07T03:35:12;14.90;99.90
7814;DHT22;3952;48.364;16.022;2023-09-07T03:37:41;14.90;99.90
7814;DHT22;3952;48.364;16.022;2023-09-07T03:40:10;14.90;99.90
7814;DHT22;3952;48.364;16.022;2023-09-07T03:42:37;14.90;99.90
7814;DHT22;3952;48.364;16.022;2023-09-07T03:45:06;14.80;99.90
7814;DHT22;3952;48.364;16.022;2023-09-07T03:47:33;14.90;99.90
7814;DHT22;3952;48.364;16.022;2023-09-07T03:50:00;14.80;99.90
7814;DHT22;3952;48.364;16.022;2023-09-07T03:52:27;14.90;99.90
7814;DHT22;3952;48.364;16.022;2023-09-07T03:54:55;14.90;99.90
7814;DHT22;3952;48.364;16.022;2023-09-07T03:57:24;14.80;99.90
7814;DHT22;3952;48.364;16.022;2023-09-07T03:59:51;14.80;99.90
7814;DHT22;3952;48.364;16.022;2023-09-07T04:02:19;14.80;99.90
7814;DHT22;3952;48.364;16.022;2023-09-07T04:04:48;14.80;99.90
7814;DHT22;3952;48.364;16.022;2023-09-07T04:07:16;14.70;99.90
7814;DHT22;3952;48.364;16.022;2023-09-07T04:09:44;14.70;99.90
7814;DHT22;3952;48.364;16.022;2023-09-07T04:12:11;14.70;99.90
7814;DHT22;3952;48.364;16.022;2023-09-07T04:14:40;14.70;99.90
7814;DHT22;3952;48.364;16.022;2023-09-07T04:17:08;14.70;99.90
7814;DHT22;3952;48.364;16.022;2023-09-07T04:19:35;14.70;99.90
7814;DHT22;3952;48.364;16.022;2023-09-07T04:22:02;14.70;99.90
7814;DHT22;3952;48.364;16.022;2023-09-07T04:24:30;14.60;99.90
7814;DHT22;3952;48.364;16.022;2023-09-07T04:26:59;14.70;99.90
7814;DHT22;3952;48.364;16.022;2023-09-07T04:29:27;14.60;99.90
7814;DHT22;3952;48.364;16.022;2023-09-07T04:31:56;14.60;99.90
7814;DHT22;3952;48.364;16.022;2023-09-07T04:34:23;14.50;99.90
7814;DHT22;3952;48.364;16.022;2023-09-07T04:36:50;14.50;99.90
7814;DHT22;3952;48.364;16.022;2023-09-07T04:39:17;14.50;99.90
7814;DHT22;3952;48.364;16.022;2023-09-07T04:41:44;14.50;99.90
7814;DHT22;3952;48.364;16.022;2023-09-07T04:44:12;14.50;99.90
7814;DHT22;3952;48.364;16.022;2023-09-07T04:46:39;14.50;99.90
7814;DHT22;3952;48.364;16.022;2023-09-07T04:49:08;14.50;99.90
7814;DHT22;3952;48.364;16.022;2023-09-07T04:51:35;14.60;99.90
7814;DHT22;3952;48.364;16.022;2023-09-07T04:54:02;14.60;99.90
7814;DHT22;3952;48.364;16.022;2023-09-07T04:56:29;14.60;99.90
7814;DHT22;3952;48.364;16.022;2023-09-07T04:58:56;14.60;99.90
7814;DHT22;3952;48.364;16.022;2023-09-07T05:01:23;14.50;99.90
7814;DHT22;3952;48.364;16.022;2023-09-07T05:03:51;14.60;99.90
7814;DHT22;3952;48.364;16.022;2023-09-07T05:06:20;14.60;99.90
7814;DHT22;3952;48.364;16.022;2023-09-07T05:08:48;14.60;99.90
7814;DHT22;3952;48.364;16.022;2023-09-07T05:11:15;14.70;99.90
7814;DHT22;3952;48.364;16.022;2023-09-07T05:13:43;14.80;99.90
7814;DHT22;3952;48.364;16.022;2023-09-07T05:16:10;14.80;99.90
7814;DHT22;3952;48.364;16.022;2023-09-07T05:18:37;14.90;99.90
7814;DHT22;3952;48.364;16.022;2023-09-07T05:21:23;14.90;99.90
7814;DHT22;3952;48.364;16.022;2023-09-07T05:23:51;15.30;99.90
7814;DHT22;3952;48.364;16.022;2023-09-07T05:26:21;14.90;99.90
7814;DHT22;3952;48.364;16.022;2023-09-07T05:28:49;14.90;99.90
7814;DHT22;3952;48.364;16.022;2023-09-07T05:31:16;15.00;99.90
7814;DHT22;3952;48.364;16.022;2023-09-07T05:33:44;15.00;99.90
7814;DHT22;3952;48.364;16.022;2023-09-07T05:36:11;15.00;99.90
7814;DHT22;3952;48.364;16.022;2023-09-07T05:38:39;15.10;99.90
7814;DHT22;3952;48.364;16.022;2023-09-07T05:41:07;15.20;99.90
7814;DHT22;3952;48.364;16.022;2023-09-07T05:43:34;15.20;99.90
7814;DHT22;3952;48.364;16.022;2023-09-07T05:46:01;15.30;99.90
7814;DHT22;3952;48.364;16.022;2023-09-07T05:48:29;15.40;99.90
7814;DHT22;3952;48.364;16.022;2023-09-07T05:50:57;15.40;99.90
7814;DHT22;3952;48.364;16.022;2023-09-07T05:53:24;15.50;99.90
7814;DHT22;3952;48.364;16.022;2023-09-07T05:55:53;15.60;99.90
7814;DHT22;3952;48.364;16.022;2023-09-07T05:58:20;15.70;99.90
7814;DHT22;3952;48.364;16.022;2023-09-07T06:00:47;15.70;99.90
7814;DHT22;3952;48.364;16.022;2023-09-07T06:03:14;15.80;99.90
7814;DHT22;3952;48.364;16.022;2023-09-07T06:05:42;15.90;99.90
7814;DHT22;3952;48.364;16.022;2023-09-07T06:08:10;16.00;99.90
7814;DHT22;3952;48.364;16.022;2023-09-07T06:10:37;16.10;99.90
7814;DHT22;3952;48.364;16.022;2023-09-07T06:13:06;16.20;99.90
7814;DHT22;3952;48.364;16.022;2023-09-07T06:15:33;16.30;99.90
7814;DHT22;3952;48.364;16.022;2023-09-07T06:18:00;16.40;99.90
7814;DHT22;3952;48.364;16.022;2023-09-07T06:20:28;16.50;99.90
7814;DHT22;3952;48.364;16.022;2023-09-07T06:22:56;16.60;99.90
7814;DHT22;3952;48.364;16.022;2023-09-07T06:25:23;16.80;99.90
7814;DHT22;3952;48.364;16.022;2023-09-07T06:27:50;16.80;99.90
7814;DHT22;3952;48.364;16.022;2023-09-07T06:30:19;17.00;99.90
7814;DHT22;3952;48.364;16.022;2023-09-07T06:32:46;17.10;99.90
7814;DHT22;3952;48.364;16.022;2023-09-07T06:35:14;17.20;99.90
7814;DHT22;3952;48.364;16.022;2023-09-07T06:37:40;17.30;99.90
7814;DHT22;3952;48.364;16.022;2023-09-07T06:40:09;17.40;99.90
7814;DHT22;3952;48.364;16.022;2023-09-07T06:42:37;17.50;99.90
7814;DHT22;3952;48.364;16.022;2023-09-07T06:45:05;17.70;99.90
7814;DHT22;3952;48.364;16.022;2023-09-07T06:47:34;17.80;99.90
7814;DHT22;3952;48.364;16.022;2023-09-07T06:50:02;18.00;99.90
7814;DHT22;3952;48.364;16.022;2023-09-07T06:52:29;18.20;99.90
7814;DHT22;3952;48.364;16.022;2023-09-07T06:54:56;18.30;99.90
7814;DHT22;3952;48.364;16.022;2023-09-07T06:57:23;18.50;99.90
7814;DHT22;3952;48.364;16.022;2023-09-07T06:59:51;18.60;99.90
7814;DHT22;3952;48.364;16.022;2023-09-07T07:02:18;18.70;99.90
7814;DHT22;3952;48.364;16.022;2023-09-07T07:04:46;18.90;99.90
7814;DHT22;3952;48.364;16.022;2023-09-07T07:07:13;19.00;99.90
7814;DHT22;3952;48.364;16.022;2023-09-07T07:09:41;19.20;99.90
7814;DHT22;3952;48.364;16.022;2023-09-07T07:12:08;19.30;99.90
7814;DHT22;3952;48.364;16.022;2023-09-07T07:14:35;19.50;99.90
7814;DHT22;3952;48.364;16.022;2023-09-07T07:17:02;19.60;99.90
7814;DHT22;3952;48.364;16.022;2023-09-07T07:19:30;19.70;99.90
7814;DHT22;3952;48.364;16.022;2023-09-07T07:21:59;19.80;99.90
7814;DHT22;3952;48.364;16.022;2023-09-07T07:24:26;19.90;99.90
7814;DHT22;3952;48.364;16.022;2023-09-07T07:26:54;20.10;99.90
7814;DHT22;3952;48.364;16.022;2023-09-07T07:29:21;20.20;99.90
7814;DHT22;3952;48.364;16.022;2023-09-07T07:31:48;20.30;99.90
7814;DHT22;3952;48.364;16.022;2023-09-07T07:34:15;20.50;99.90
7814;DHT22;3952;48.364;16.022;2023-09-07T07:36:42;20.60;99.90
7814;DHT22;3952;48.364;16.022;2023-09-07T07:39:11;20.70;99.90
7814;DHT22;3952;48.364;16.022;2023-09-07T07:41:39;21.00;99.90
7814;DHT22;3952;48.364;16.022;2023-09-07T07:44:06;21.20;99.90
7814;DHT22;3952;48.364;16.022;2023-09-07T07:46:33;21.40;99.90
7814;DHT22;3952;48.364;16.022;2023-09-07T07:49:01;21.50;99.90
7814;DHT22;3952;48.364;16.022;2023-09-07T07:51:28;21.70;99.90
7814;DHT22;3952;48.364;16.022;2023-09-07T07:53:55;22.00;99.90
7814;DHT22;3952;48.364;16.022;2023-09-07T07:56:24;22.10;99.90
7814;DHT22;3952;48.364;16.022;2023-09-07T07:58:51;22.30;99.90
7814;DHT22;3952;48.364;16.022;2023-09-07T08:01:19;22.50;99.90
7814;DHT22;3952;48.364;16.022;2023-09-07T08:03:47;22.60;99.90
7814;DHT22;3952;48.364;16.022;2023-09-07T08:06:14;22.80;99.90
7814;DHT22;3952;48.364;16.022;2023-09-07T08:08:41;22.90;99.90
7814;DHT22;3952;48.364;16.022;2023-09-07T08:11:09;22.90;99.90
7814;DHT22;3952;48.364;16.022;2023-09-07T08:13:37;23.10;99.90
7814;DHT22;3952;48.364;16.022;2023-09-07T08:16:05;23.20;99.90
7814;DHT22;3952;48.364;16.022;2023-09-07T08:18:33;23.40;99.90
7814;DHT22;3952;48.364;16.022;2023-09-07T08:21:01;23.50;99.90
7814;DHT22;3952;48.364;16.022;2023-09-07T08:23:28;23.70;99.90
7814;DHT22;3952;48.364;16.022;2023-09-07T08:25:55;23.90;99.90
7814;DHT22;3952;48.364;16.022;2023-09-07T08:28:23;24.10;99.90
7814;DHT22;3952;48.364;16.022;2023-09-07T08:30:52;24.30;99.90
7814;DHT22;3952;48.364;16.022;2023-09-07T08:33:20;24.50;99.90
7814;DHT22;3952;48.364;16.022;2023-09-07T08:35:55;24.60;99.90
7814;DHT22;3952;48.364;16.022;2023-09-07T08:38:23;24.70;99.90
7814;DHT22;3952;48.364;16.022;2023-09-07T08:40:54;24.90;99.90
7814;DHT22;3952;48.364;16.022;2023-09-07T08:43:22;24.80;99.90
7814;DHT22;3952;48.364;16.022;2023-09-07T08:46:05;24.90;99.90
7814;DHT22;3952;48.364;16.022;2023-09-07T08:48:37;25.10;99.90
7814;DHT22;3952;48.364;16.022;2023-09-07T08:51:06;25.30;99.90
7814;DHT22;3952;48.364;16.022;2023-09-07T08:53:36;25.40;99.90
7814;DHT22;3952;48.364;16.022;2023-09-07T08:56:04;25.50;99.90
7814;DHT22;3952;48.364;16.022;2023-09-07T08:58:35;25.60;99.90
7814;DHT22;3952;48.364;16.022;2023-09-07T09:01:04;25.70;99.90
7814;DHT22;3952;48.364;16.022;2023-09-07T09:03:34;25.80;99.90
7814;DHT22;3952;48.364;16.022;2023-09-07T09:06:02;25.70;99.90
7814;DHT22;3952;48.364;16.022;2023-09-07T09:08:29;25.70;99.90
7814;DHT22;3952;48.364;16.022;2023-09-07T09:11:02;25.90;99.90
7814;DHT22;3952;48.364;16.022;2023-09-07T09:13:30;25.90;99.90
7814;DHT22;3952;48.364;16.022;2023-09-07T09:15:59;25.70;99.90
7814;DHT22;3952;48.364;16.022;2023-09-07T09:18:28;25.60;99.90
7814;DHT22;3952;48.364;16.022;2023-09-07T09:20:56;25.50;99.90
7814;DHT22;3952;48.364;16.022;2023-09-07T09:23:25;25.70;99.90
7814;DHT22;3952;48.364;16.022;2023-09-07T09:25:57;25.80;99.90
7814;DHT22;3952;48.364;16.022;2023-09-07T09:28:26;26.00;99.90
7814;DHT22;3952;48.364;16.022;2023-09-07T09:30:53;26.10;99.90
7814;DHT22;3952;48.364;16.022;2023-09-07T09:33:22;26.20;99.90
7814;DHT22;3952;48.364;16.022;2023-09-07T09:35:52;26.20;99.90
7814;DHT22;3952;48.364;16.022;2023-09-07T09:38:20;26.30;99.90
7814;DHT22;3952;48.364;16.022;2023-09-07T09:40:47;26.40;99.90
7814;DHT22;3952;48.364;16.022;2023-09-07T09:43:14;26.50;99.90
7814;DHT22;3952;48.364;16.022;2023-09-07T09:45:42;26.50;99.90
7814;DHT22;3952;48.364;16.022;2023-09-07T09:48:10;26.60;99.90
7814;DHT22;3952;48.364;16.022;2023-09-07T09:50:40;26.60;99.90
7814;DHT22;3952;48.364;16.022;2023-09-07T09:53:08;26.70;99.90
7814;DHT22;3952;48.364;16.022;2023-09-07T09:55:40;26.80;99.90
7814;DHT22;3952;48.364;16.022;2023-09-07T09:58:07;26.90;99.90
7814;DHT22;3952;48.364;16.022;2023-09-07T10:00:35;27.00;99.90
7814;DHT22;3952;48.364;16.022;2023-09-07T10:03:08;27.00;99.90
7814;DHT22;3952;48.364;16.022;2023-09-07T10:05:37;27.10;99.90
7814;DHT22;3952;48.364;16.022;2023-09-07T10:08:11;27.20;99.90
7814;DHT22;3952;48.364;16.022;2023-09-07T10:10:41;27.10;99.90
7814;DHT22;3952;48.364;16.022;2023-09-07T10:13:08;27.20;99.90
7814;DHT22;3952;48.364;16.022;2023-09-07T10:15:36;27.30;99.90
7814;DHT22;3952;48.364;16.022;2023-09-07T10:18:10;27.40;99.90
7814;DHT22;3952;48.364;16.022;2023-09-07T10:20:51;27.40;99.90
7814;DHT22;3952;48.364;16.022;2023-09-07T10:23:20;27.40;99.90
7814;DHT22;3952;48.364;16.022;2023-09-07T10:25:51;27.40;99.90
7814;DHT22;3952;48.364;16.022;2023-09-07T10:28:22;27.50;99.90
7814;DHT22;3952;48.364;16.022;2023-09-07T10:31:03;27.60;99.90
7814;DHT22;3952;48.364;16.022;2023-09-07T10:33:31;27.70;99.90
7814;DHT22;3952;48.364;16.022;2023-09-07T10:35:59;27.80;99.90
7814;DHT22;3952;48.364;16.022;2023-09-07T10:38:28;27.80;99.90
7814;DHT22;3952;48.364;16.022;2023-09-07T10:40:57;27.80;99.90
7814;DHT22;3952;48.364;16.022;2023-09-07T10:43:25;27.70;99.90
7814;DHT22;3952;48.364;16.022;2023-09-07T10:45:53;27.80;99.90
7814;DHT22;3952;48.364;16.022;2023-09-07T10:48:22;27.90;99.90
7814;DHT22;3952;48.364;16.022;2023-09-07T10:50:49;27.90;99.90
7814;DHT22;3952;48.364;16.022;2023-09-07T10:53:25;27.90;99.90
7814;DHT22;3952;48.364;16.022;2023-09-07T10:55:56;27.90;99.90
7814;DHT22;3952;48.364;16.022;2023-09-07T10:58:26;28.00;99.90
7814;DHT22;3952;48.364;16.022;2023-09-07T11:00:53;27.90;99.90
7814;DHT22;3952;48.364;16.022;2023-09-07T11:03:21;27.90;99.90
7814;DHT22;3952;48.364;16.022;2023-09-07T11:05:49;28.00;99.90
7814;DHT22;3952;48.364;16.022;2023-09-07T11:08:18;27.90;99.80
7814;DHT22;3952;48.364;16.022;2023-09-07T11:10:45;27.90;99.90
7814;DHT22;3952;48.364;16.022;2023-09-07T11:13:15;28.00;99.90
7814;DHT22;3952;48.364;16.022;2023-09-07T11:15:43;28.00;99.90
7814;DHT22;3952;48.364;16.022;2023-09-07T11:18:10;27.90;99.90
7814;DHT22;3952;48.364;16.022;2023-09-07T11:20:39;28.00;99.70
7814;DHT22;3952;48.364;16.022;2023-09-07T11:23:06;28.10;99.70
7814;DHT22;3952;48.364;16.022;2023-09-07T11:25:35;28.10;99.10
7814;DHT22;3952;48.364;16.022;2023-09-07T11:28:04;28.20;98.80
7814;DHT22;3952;48.364;16.022;2023-09-07T11:30:33;28.30;99.40
7814;DHT22;3952;48.364;16.022;2023-09-07T11:33:01;28.30;98.70
7814;DHT22;3952;48.364;16.022;2023-09-07T11:35:29;28.30;99.20
7814;DHT22;3952;48.364;16.022;2023-09-07T11:37:56;28.30;98.60
7814;DHT22;3952;48.364;16.022;2023-09-07T11:40:23;28.30;99.30
7814;DHT22;3952;48.364;16.022;2023-09-07T11:42:50;28.40;98.00
7814;DHT22;3952;48.364;16.022;2023-09-07T11:45:17;28.40;98.70
7814;DHT22;3952;48.364;16.022;2023-09-07T11:47:46;28.50;98.40
7814;DHT22;3952;48.364;16.022;2023-09-07T11:50:15;28.40;97.70
7814;DHT22;3952;48.364;16.022;2023-09-07T11:52:43;28.40;98.50
7814;DHT22;3952;48.364;16.022;2023-09-07T11:55:10;28.40;98.50
7814;DHT22;3952;48.364;16.022;2023-09-07T11:57:37;28.40;98.10
7814;DHT22;3952;48.364;16.022;2023-09-07T12:00:06;28.40;98.40
7814;DHT22;3952;48.364;16.022;2023-09-07T12:02:36;28.30;98.40
7814;DHT22;3952;48.364;16.022;2023-09-07T12:05:06;28.30;98.20
7814;DHT22;3952;48.364;16.022;2023-09-07T12:07:35;28.30;97.20
7814;DHT22;3952;48.364;16.022;2023-09-07T12:10:03;28.30;96.50
7814;DHT22;3952;48.364;16.022;2023-09-07T12:12:30;28.30;96.30
7814;DHT22;3952;48.364;16.022;2023-09-07T12:14:57;28.30;96.50
7814;DHT22;3952;48.364;16.022;2023-09-07T12:17:26;28.30;95.60
7814;DHT22;3952;48.364;16.022;2023-09-07T12:19:53;28.30;93.50
7814;DHT22;3952;48.364;16.022;2023-09-07T12:22:21;28.20;94.00
7814;DHT22;3952;48.364;16.022;2023-09-07T12:24:49;28.10;94.30
7814;DHT22;3952;48.364;16.022;2023-09-07T12:27:16;28.10;93.10
7814;DHT22;3952;48.364;16.022;2023-09-07T12:29:44;28.10;92.80
7814;DHT22;3952;48.364;16.022;2023-09-07T12:32:11;28.10;94.50
7814;DHT22;3952;48.364;16.022;2023-09-07T12:34:38;28.10;94.90
7814;DHT22;3952;48.364;16.022;2023-09-07T12:37:06;28.10;94.70
7814;DHT22;3952;48.364;16.022;2023-09-07T12:39:35;28.20;94.00
7814;DHT22;3952;48.364;16.022;2023-09-07T12:42:02;28.30;93.30
7814;DHT22;3952;48.364;16.022;2023-09-07T12:44:30;28.30;94.40
7814;DHT22;3952;48.364;16.022;2023-09-07T12:46:58;28.40;93.50
7814;DHT22;3952;48.364;16.022;2023-09-07T12:49:25;28.40;93.10
7814;DHT22;3952;48.364;16.022;2023-09-07T12:51:52;28.40;93.00
7814;DHT22;3952;48.364;16.022;2023-09-07T12:54:19;28.40;93.90
7814;DHT22;3952;48.364;16.022;2023-09-07T12:56:48;28.40;93.50
7814;DHT22;3952;48.364;16.022;2023-09-07T12:59:15;28.40;94.20
7814;DHT22;3952;48.364;16.022;2023-09-07T13:01:42;28.30;94.40
7814;DHT22;3952;48.364;16.022;2023-09-07T13:04:09;28.40;93.20
7814;DHT22;3952;48.364;16.022;2023-09-07T13:06:37;28.30;92.80
7814;DHT22;3952;48.364;16.022;2023-09-07T13:09:05;28.20;92.90
7814;DHT22;3952;48.364;16.022;2023-09-07T13:11:33;28.20;93.20
7814;DHT22;3952;48.364;16.022;2023-09-07T13:14:02;28.20;92.80
7814;DHT22;3952;48.364;16.022;2023-09-07T13:16:29;28.20;93.10
7814;DHT22;3952;48.364;16.022;2023-09-07T13:18:58;28.20;93.30
7814;DHT22;3952;48.364;16.022;2023-09-07T13:21:25;28.20;92.80
7814;DHT22;3952;48.364;16.022;2023-09-07T13:23:52;28.20;93.30
7814;DHT22;3952;48.364;16.022;2023-09-07T13:26:19;28.20;93.90
7814;DHT22;3952;48.364;16.022;2023-09-07T13:28:46;28.20;94.20
7814;DHT22;3952;48.364;16.022;2023-09-07T13:31:15;28.10;93.40
7814;DHT22;3952;48.364;16.022;2023-09-07T13:33:42;28.10;93.40
7814;DHT22;3952;48.364;16.022;2023-09-07T13:36:09;28.10;93.40
7814;DHT22;3952;48.364;16.022;2023-09-07T13:38:37;27.90;93.70
7814;DHT22;3952;48.364;16.022;2023-09-07T13:41:04;27.90;93.50
7814;DHT22;3952;48.364;16.022;2023-09-07T13:43:31;27.80;94.40
7814;DHT22;3952;48.364;16.022;2023-09-07T13:45:58;27.90;94.20
7814;DHT22;3952;48.364;16.022;2023-09-07T13:48:27;27.80;93.50
7814;DHT22;3952;48.364;16.022;2023-09-07T13:50:55;27.80;93.50
7814;DHT22;3952;48.364;16.022;2023-09-07T13:53:23;27.70;93.50
7814;DHT22;3952;48.364;16.022;2023-09-07T13:55:50;27.60;93.90
7814;DHT22;3952;48.364;16.022;2023-09-07T13:58:17;27.60;93.70
7814;DHT22;3952;48.364;16.022;2023-09-07T14:00:45;27.50;93.60
7814;DHT22;3952;48.364;16.022;2023-09-07T14:03:12;27.60;94.40
7814;DHT22;3952;48.364;16.022;2023-09-07T14:05:41;27.60;93.70
7814;DHT22;3952;48.364;16.022;2023-09-07T14:08:08;27.60;94.00
7814;DHT22;3952;48.364;16.022;2023-09-07T14:10:35;27.60;94.10
7814;DHT22;3952;48.364;16.022;2023-09-07T14:13:03;27.60;93.10
7814;DHT22;3952;48.364;16.022;2023-09-07T14:15:31;27.60;94.00
7814;DHT22;3952;48.364;16.022;2023-09-07T14:17:58;27.70;94.20
7814;DHT22;3952;48.364;16.022;2023-09-07T14:20:26;27.60;93.60
7814;DHT22;3952;48.364;16.022;2023-09-07T14:22:55;27.60;93.50
7814;DHT22;3952;48.364;16.022;2023-09-07T14:25:24;27.60;93.90
7814;DHT22;3952;48.364;16.022;2023-09-07T14:27:51;27.60;93.50
7814;DHT22;3952;48.364;16.022;2023-09-07T14:30:18;27.50;93.80
7814;DHT22;3952;48.364;16.022;2023-09-07T14:32:45;27.60;94.40
7814;DHT22;3952;48.364;16.022;2023-09-07T14:35:14;27.60;93.40
7814;DHT22;3952;48.364;16.022;2023-09-07T14:37:42;27.50;93.50
7814;DHT22;3952;48.364;16.022;2023-09-07T14:40:11;27.50;94.10
7814;DHT22;3952;48.364;16.022;2023-09-07T14:42:39;27.50;94.10
7814;DHT22;3952;48.364;16.022;2023-09-07T14:45:07;27.40;94.00
7814;DHT22;3952;48.364;16.022;2023-09-07T14:47:34;27.40;94.20
7814;DHT22;3952;48.364;16.022;2023-09-07T14:50:01;27.40;94.70
7814;DHT22;3952;48.364;16.022;2023-09-07T14:52:29;27.40;94.30
7814;DHT22;3952;48.364;16.022;2023-09-07T14:54:57;27.40;94.10
7814;DHT22;3952;48.364;16.022;2023-09-07T14:57:25;27.40;94.40
7814;DHT22;3952;48.364;16.022;2023-09-07T14:59:53;27.40;94.50
7814;DHT22;3952;48.364;16.022;2023-09-07T15:02:20;27.30;93.90
7814;DHT22;3952;48.364;16.022;2023-09-07T15:04:47;27.20;94.20
7814;DHT22;3952;48.364;16.022;2023-09-07T15:07:14;27.10;94.40
7814;DHT22;3952;48.364;16.022;2023-09-07T15:09:41;27.10;94.70
7814;DHT22;3952;48.364;16.022;2023-09-07T15:12:09;27.10;94.40
7814;DHT22;3952;48.364;16.022;2023-09-07T15:14:38;27.10;94.90
7814;DHT22;3952;48.364;16.022;2023-09-07T15:17:05;27.20;94.90
7814;DHT22;3952;48.364;16.022;2023-09-07T15:19:33;27.10;94.60
7814;DHT22;3952;48.364;16.022;2023-09-07T15:22:00;27.10;94.40
7814;DHT22;3952;48.364;16.022;2023-09-07T15:24:27;27.00;94.20
7814;DHT22;3952;48.364;16.022;2023-09-07T15:26:55;27.00;94.50
7814;DHT22;3952;48.364;16.022;2023-09-07T15:29:22;27.00;94.50
7814;DHT22;3952;48.364;16.022;2023-09-07T15:31:51;26.90;94.50
7814;DHT22;3952;48.364;16.022;2023-09-07T15:34:19;27.00;94.80
7814;DHT22;3952;48.364;16.022;2023-09-07T15:36:47;26.90;94.30
7814;DHT22;3952;48.364;16.022;2023-09-07T15:39:15;26.90;94.60
7814;DHT22;3952;48.364;16.022;2023-09-07T15:41:42;26.90;94.70
7814;DHT22;3952;48.364;16.022;2023-09-07T15:44:09;26.90;94.80
7814;DHT22;3952;48.364;16.022;2023-09-07T15:46:36;26.80;95.10
7814;DHT22;3952;48.364;16.022;2023-09-07T15:49:05;26.90;95.60